コロンボ の空港の天気 - METARとTAF

バンダラナイケ国際空港 ( VCBI / CMB ) - スリランカ コロンボ
飛行場実況気象(Metar)
観測時間11/27 13:40 IST (11/27 08:10 UTC)
風向・風速西 3m/s
視程10km以上
天気現象
少しの雲 雲底高度 490m
気温32℃
湿度63%
気圧1007hPa
METARVCBI 270810Z 27006KT 220V350 9999 FEW016 32/24 Q1007 NOSIG
過去の天気等 Google飛行場航空写真 Wunderground天気予報

過去48時間のMETAR

飛行場予報(TAF)
発表時間: 11/27 10:30 IST (11/27 05:00 UTC)
予報対象時間: 27日11時 IST ~ 28日17時 IST
風向・風速西 3m/s
視程10km以上
少しの雲 雲底高度 550m
27日16時 IST ~ 27日18時 IST に徐々に
風向・風速不定 3m/s
TAF VCBI 270500Z 2706/2812 26005KT 9999 FEW018 TX32/2707Z TN23/2800Z
BECMG 2711/2713 VRB05KT